Time;durP1;ratioP1;P1;durP2;ratioP2;P2;SDS_P1;SDS_P2;PMS_P1;PMS_P2;Temp;Humidity;BMP_temperature;BMP_pressure;BME280_temperature;BME280_humidity;BME280_pressure;Samples;Min_cycle;Max_cycle;Signal;HPM_P1;HPM_P2
2024/05/06 00:01:56;;;;;;;146.50;47.37;;;17.10;87.10;;;;;;5488449;26;20590;-52
2024/05/06 00:04:26;;;;;;;146.80;47.43;;;17.10;86.00;;;;;;5453240;26;20733;-52
2024/05/06 00:06:56;;;;;;;146.90;47.50;;;17.00;86.10;;;;;;5451864;26;20591;-51
2024/05/06 00:09:29;;;;;;;147.43;47.93;;;17.10;87.30;;;;;;5451717;26;20596;-52
2024/05/06 00:11:59;;;;;;;146.23;47.27;;;16.90;85.50;;;;;;5452041;26;20592;-51
2024/05/06 00:14:29;;;;;;;146.33;47.30;;;16.80;85.30;;;;;;5451767;26;20607;-51
2024/05/06 00:16:59;;;;;;;146.80;47.47;;;16.90;87.10;;;;;;5452185;26;20587;-51
2024/05/06 00:19:29;;;;;;;146.80;47.67;;;16.90;86.70;;;;;;5452057;26;20600;-51
2024/05/06 00:21:59;;;;;;;146.83;47.37;;;16.90;86.50;;;;;;5451769;26;20671;-52
2024/05/06 00:24:32;;;;;;;146.30;47.40;;;16.80;86.40;;;;;;5451760;26;20589;-52
2024/05/06 00:27:02;;;;;;;146.63;47.40;;;16.90;87.10;;;;;;5452120;26;20709;-52
2024/05/06 00:29:32;;;;;;;145.80;46.90;;;16.90;86.90;;;;;;5451265;26;20658;-52
2024/05/06 00:32:02;;;;;;;146.10;47.20;;;16.90;87.30;;;;;;5451830;26;21058;-52
2024/05/06 00:34:32;;;;;;;146.60;47.43;;;16.80;86.10;;;;;;5451368;26;20793;-52
2024/05/06 00:37:02;;;;;;;146.80;47.47;;;16.60;85.70;;;;;;5452036;26;20603;-51
2024/05/06 00:39:35;;;;;;;146.57;47.57;;;16.80;86.30;;;;;;5451593;26;20680;-52
2024/05/06 00:42:05;;;;;;;147.10;47.70;;;16.80;87.90;;;;;;5451820;26;20693;-51
2024/05/06 00:44:35;;;;;;;146.20;47.20;;;16.70;87.60;;;;;;5458112;26;20570;-51
2024/05/06 00:47:05;;;;;;;146.30;47.20;;;16.70;87.10;;;;;;5488236;26;20696;-51
2024/05/06 00:49:36;;;;;;;146.40;47.23;;;16.70;87.30;;;;;;5487915;26;20538;-52
2024/05/06 00:52:07;;;;;;;146.27;47.33;;;16.70;86.90;;;;;;5487968;26;20683;-51
2024/05/06 00:54:40;;;;;;;146.60;47.50;;;16.80;88.40;;;;;;5489721;26;20550;-51
2024/05/06 00:57:11;;;;;;;146.03;47.20;;;16.80;87.60;;;;;;5491264;26;20574;-52
2024/05/06 00:59:41;;;;;;;146.20;47.13;;;16.70;86.30;;;;;;5491034;26;20640;-51
2024/05/06 01:02:12;;;;;;;145.90;47.17;;;16.80;87.40;;;;;;5489708;26;20649;-52
2024/05/06 01:04:43;;;;;;;146.27;47.33;;;16.80;87.80;;;;;;5455251;26;20532;-52
2024/05/06 01:07:14;;;;;;;145.77;47.00;;;16.70;86.10;;;;;;5454824;26;20705;-52
2024/05/06 01:09:46;;;;;;;146.67;47.57;;;16.80;88.00;;;;;;5454784;26;20626;-52
2024/05/06 01:12:16;;;;;;;146.57;47.43;;;16.50;86.10;;;;;;5454465;26;20595;-51
2024/05/06 01:14:47;;;;;;;146.20;47.33;;;16.70;88.50;;;;;;5454670;26;20540;-51
2024/05/06 01:17:17;;;;;;;146.17;47.20;;;16.80;88.20;;;;;;5454535;26;21240;-52
2024/05/06 01:19:47;;;;;;;145.93;47.20;;;16.60;86.20;;;;;;5454627;26;20560;-51
2024/05/06 01:22:25;;;;;;;146.57;47.60;;;16.50;86.90;;;;;;5454478;26;21242;-52
2024/05/06 01:24:58;;;;;;;146.07;47.37;;;16.60;87.20;;;;;;5454675;26;20634;-52
2024/05/06 01:27:28;;;;;;;146.17;47.23;;;16.70;87.80;;;;;;5454379;26;20715;-52
2024/05/06 01:29:58;;;;;;;145.73;47.00;;;16.40;85.50;;;;;;5454223;26;20669;-52
2024/05/06 01:32:28;;;;;;;145.90;47.23;;;16.40;86.80;;;;;;5454409;26;20658;-52
2024/05/06 01:34:58;;;;;;;146.33;47.40;;;16.40;87.60;;;;;;5454232;26;20568;-52
2024/05/06 01:37:28;;;;;;;145.83;47.10;;;16.60;87.30;;;;;;5454204;26;20685;-52
2024/05/06 01:40:01;;;;;;;146.17;47.33;;;16.50;86.70;;;;;;5454142;26;21107;-51
2024/05/06 01:42:31;;;;;;;146.17;47.50;;;16.80;89.50;;;;;;5454454;26;21259;-51
2024/05/06 01:45:02;;;;;;;146.83;47.60;;;16.60;87.30;;;;;;5467900;26;20676;-51
2024/05/06 01:47:32;;;;;;;145.83;47.10;;;16.50;87.70;;;;;;5490731;26;20594;-51
2024/05/06 01:50:02;;;;;;;145.30;47.00;;;16.40;86.40;;;;;;5490435;26;20590;-52
2024/05/06 01:52:32;;;;;;;145.80;47.23;;;16.20;86.50;;;;;;5490281;26;20582;-51
2024/05/06 01:55:05;;;;;;;145.43;47.10;;;16.30;87.20;;;;;;5490279;26;20603;-51
2024/05/06 01:57:35;;;;;;;145.67;46.90;;;16.30;88.50;;;;;;5490673;26;21276;-52
2024/05/06 02:00:05;;;;;;;145.93;47.30;;;16.40;88.20;;;;;;5490048;26;21237;-52
2024/05/06 02:02:40;;;;;;;145.63;47.10;;;16.60;89.10;;;;;;5482059;26;20820;-52
2024/05/06 02:05:10;;;;;;;145.93;47.37;;;16.50;87.00;;;;;;5453891;26;21193;-52
2024/05/06 02:07:40;;;;;;;145.50;47.07;;;16.50;88.10;;;;;;5453938;26;20583;-52
2024/05/06 02:10:13;;;;;;;145.47;47.03;;;16.40;88.10;;;;;;5453664;26;20551;-52
2024/05/06 02:12:43;;;;;;;145.17;46.93;;;16.30;86.90;;;;;;5454022;26;20639;-52
2024/05/06 02:15:13;;;;;;;146.03;47.27;;;16.30;87.30;;;;;;5453600;26;20933;-52
2024/05/06 02:17:43;;;;;;;145.67;47.30;;;16.40;88.30;;;;;;5453829;26;21135;-51
2024/05/06 02:20:13;;;;;;;145.40;47.10;;;16.20;86.60;;;;;;5453776;26;20592;-51
2024/05/06 02:22:43;;;;;;;145.67;47.03;;;16.30;88.40;;;;;;5453776;26;20693;-52
2024/05/06 02:25:16;;;;;;;145.23;46.93;;;16.30;88.20;;;;;;5453789;26;20544;-51
2024/05/06 02:27:47;;;;;;;145.40;47.13;;;16.30;87.50;;;;;;5453720;26;20591;-52
2024/05/06 02:30:17;;;;;;;145.23;46.97;;;16.20;87.90;;;;;;5453328;26;20540;-51
2024/05/06 02:32:47;;;;;;;145.03;46.77;;;16.20;89.30;;;;;;5453053;26;21033;-52
2024/05/06 02:35:17;;;;;;;145.43;47.07;;;16.40;89.10;;;;;;5453562;26;20540;-52
2024/05/06 02:37:47;;;;;;;145.13;46.80;;;16.40;89.20;;;;;;5453564;26;20583;-51
2024/05/06 02:40:20;;;;;;;145.17;47.00;;;16.40;87.80;;;;;;5453346;26;20560;-51
2024/05/06 02:42:50;;;;;;;145.47;47.03;;;16.50;90.00;;;;;;5453309;26;20591;-51
2024/05/06 02:45:20;;;;;;;145.50;47.07;;;16.50;88.90;;;;;;5471618;26;21031;-51
2024/05/06 02:47:50;;;;;;;145.23;47.00;;;16.20;88.50;;;;;;5489800;26;21069;-51
2024/05/06 02:50:20;;;;;;;145.57;47.00;;;16.10;88.70;;;;;;5489574;26;20610;-52
2024/05/06 02:52:50;;;;;;;145.50;47.13;;;16.30;88.40;;;;;;5489463;26;20578;-51
2024/05/06 02:55:23;;;;;;;145.47;47.17;;;16.20;87.20;;;;;;5490126;26;20554;-51
2024/05/06 02:57:53;;;;;;;145.77;47.23;;;16.10;87.40;;;;;;5489737;26;21008;-51
2024/05/06 03:00:23;;;;;;;145.43;47.07;;;16.20;88.90;;;;;;5489471;26;20538;-51
2024/05/06 03:02:54;;;;;;;145.13;47.03;;;16.30;90.20;;;;;;5477316;26;20644;-51
2024/05/06 03:05:24;;;;;;;145.23;46.90;;;16.40;90.30;;;;;;5453583;26;20532;-51
2024/05/06 03:07:54;;;;;;;145.97;47.50;;;16.40;89.40;;;;;;5452956;26;20705;-51
2024/05/06 03:10:27;;;;;;;145.20;47.10;;;16.20;87.30;;;;;;5453052;26;21111;-51
2024/05/06 03:12:57;;;;;;;144.67;46.80;;;15.90;87.30;;;;;;5453074;26;20635;-51
2024/05/06 03:15:27;;;;;;;145.40;47.17;;;16.00;89.80;;;;;;5452559;26;20633;-51
2024/05/06 03:17:57;;;;;;;145.67;47.20;;;16.20;89.40;;;;;;5451902;26;20595;-51
2024/05/06 03:20:27;;;;;;;145.77;47.20;;;16.00;86.70;;;;;;5452850;26;20641;-51
2024/05/06 03:22:57;;;;;;;145.43;47.07;;;16.00;89.30;;;;;;5453102;26;20599;-51
2024/05/06 03:25:30;;;;;;;144.80;46.80;;;16.00;90.10;;;;;;5452506;26;21201;-51
2024/05/06 03:28:00;;;;;;;144.70;46.80;;;16.10;89.40;;;;;;5452709;26;20580;-51
2024/05/06 03:30:30;;;;;;;145.00;47.10;;;16.10;88.70;;;;;;5452506;26;20537;-51
2024/05/06 03:33:00;;;;;;;145.23;47.03;;;16.00;88.30;;;;;;5452425;26;20976;-51
2024/05/06 03:35:30;;;;;;;144.97;46.97;;;15.90;88.30;;;;;;5452502;26;20528;-51
2024/05/06 03:38:00;;;;;;;145.23;47.07;;;15.90;88.00;;;;;;5452775;26;20695;-51
2024/05/06 03:40:33;;;;;;;145.00;46.90;;;16.10;90.50;;;;;;5452662;26;20536;-51
2024/05/06 03:43:03;;;;;;;145.07;47.07;;;16.10;90.10;;;;;;5459388;26;21158;-49
2024/05/06 03:45:33;;;;;;;145.30;47.13;;;16.10;90.30;;;;;;5479719;26;20623;-49
2024/05/06 03:48:03;;;;;;;145.13;47.00;;;16.40;90.40;;;;;;5485165;26;21066;-49
2024/05/06 03:50:33;;;;;;;145.17;47.03;;;16.30;90.20;;;;;;5485578;26;20997;-49
2024/05/06 03:53:04;;;;;;;145.40;47.23;;;16.10;88.70;;;;;;5486671;26;21012;-49
2024/05/06 03:55:36;;;;;;;145.07;47.00;;;16.10;90.70;;;;;;5485190;26;20609;-49
2024/05/06 03:58:06;;;;;;;144.77;46.80;;;16.00;89.30;;;;;;5485980;26;20599;-49
2024/05/06 04:00:36;;;;;;;145.20;47.13;;;16.00;90.20;;;;;;5485588;26;20582;-48
2024/05/06 04:03:07;;;;;;;144.60;46.77;;;15.80;90.10;;;;;;5486895;26;21275;-49
2024/05/06 04:05:37;;;;;;;144.53;46.80;;;15.90;90.60;;;;;;5486517;26;20635;-49
2024/05/06 04:08:08;;;;;;;145.17;47.00;;;16.10;91.20;;;;;;5485980;26;21026;-49
2024/05/06 04:10:41;;;;;;;144.67;46.90;;;15.90;91.00;;;;;;5479455;26;21646;-49
2024/05/06 04:13:11;;;;;;;145.03;47.07;;;16.00;90.80;;;;;;5486435;26;20654;-49
2024/05/06 04:15:41;;;;;;;145.20;47.03;;;16.10;91.10;;;;;;5485094;26;20676;-50
2024/05/06 04:18:11;;;;;;;144.33;46.73;;;15.90;90.00;;;;;;5484334;26;20670;-51
2024/05/06 04:20:41;;;;;;;144.53;46.73;;;15.80;90.50;;;;;;5485795;26;20570;-50
2024/05/06 04:28:45;;;;;;;145.33;47.20;;;16.00;91.30;;;;;;5481486;26;21216;-51
2024/05/06 04:31:15;;;;;;;144.83;47.07;;;16.20;90.60;;;;;;5483147;26;20562;-51
2024/05/06 04:33:45;;;;;;;144.80;46.87;;;16.10;90.60;;;;;;5485088;26;20594;-50
2024/05/06 04:36:15;;;;;;;145.10;47.07;;;16.10;91.00;;;;;;5485832;26;20665;-50
2024/05/06 04:38:45;;;;;;;144.73;47.00;;;16.00;91.10;;;;;;5484271;26;21121;-50
2024/05/06 04:41:21;;;;;;;144.63;46.97;;;16.00;91.10;;;;;;5484843;26;20646;-50
2024/05/06 04:43:51;;;;;;;144.40;46.77;;;16.00;90.90;;;;;;5484815;26;20562;-50
2024/05/06 04:46:21;;;;;;;144.97;46.97;;;16.10;92.00;;;;;;5483614;26;20614;-50
2024/05/06 04:48:51;;;;;;;144.70;46.90;;;16.10;91.50;;;;;;5479334;26;20663;-50
2024/05/06 04:51:21;;;;;;;145.47;47.30;;;16.20;91.60;;;;;;5482050;26;21033;-51
2024/05/06 04:53:51;;;;;;;145.13;47.10;;;16.20;92.10;;;;;;5479242;26;20693;-51
2024/05/06 04:56:24;;;;;;;145.23;47.13;;;16.10;92.20;;;;;;5484009;26;20715;-50
2024/05/06 04:58:54;;;;;;;144.77;46.90;;;16.10;92.70;;;;;;5482981;26;20586;-52
2024/05/06 05:01:25;;;;;;;144.77;46.93;;;16.20;91.20;;;;;;5484792;26;20692;-51
2024/05/06 05:03:55;;;;;;;144.67;46.97;;;16.10;92.40;;;;;;5483538;26;21114;-51
2024/05/06 05:06:25;;;;;;;144.73;47.00;;;16.10;91.90;;;;;;5478798;26;20602;-50
2024/05/06 05:08:55;;;;;;;144.67;47.07;;;16.20;92.00;;;;;;5484578;26;20909;-52
2024/05/06 05:11:28;;;;;;;144.97;46.97;;;16.30;92.50;;;;;;5448744;26;21333;-51
2024/05/06 05:13:58;;;;;;;144.83;47.07;;;16.20;92.40;;;;;;5450234;26;20532;-50
2024/05/06 05:16:28;;;;;;;145.40;47.23;;;16.20;92.40;;;;;;5451087;26;20693;-51
2024/05/06 05:18:58;;;;;;;145.03;47.13;;;16.10;91.80;;;;;;5450715;26;20658;-53
2024/05/06 05:21:28;;;;;;;145.00;47.10;;;16.20;93.50;;;;;;5450564;26;21007;-51
2024/05/06 05:23:58;;;;;;;144.20;46.63;;;16.20;92.70;;;;;;5450388;26;20552;-51
2024/05/06 05:26:31;;;;;;;144.90;46.93;;;16.30;94.10;;;;;;5450506;26;20999;-52
2024/05/06 05:29:01;;;;;;;144.83;46.87;;;16.20;93.30;;;;;;5450207;26;20596;-50
2024/05/06 05:31:31;;;;;;;145.63;47.33;;;16.30;93.10;;;;;;5450539;26;20714;-51
2024/05/06 05:34:02;;;;;;;145.73;47.53;;;16.30;92.90;;;;;;5469200;26;20697;-51
2024/05/06 05:36:32;;;;;;;145.27;47.30;;;16.20;94.00;;;;;;5486678;26;20578;-50
2024/05/06 05:39:03;;;;;;;145.57;47.37;;;16.30;92.80;;;;;;5486073;26;20882;-51
2024/05/06 05:41:35;;;;;;;145.37;47.30;;;16.40;93.60;;;;;;5490158;26;20919;-51
2024/05/06 05:44:05;;;;;;;145.30;47.30;;;16.50;93.40;;;;;;5489988;26;21115;-50
2024/05/06 05:46:39;;;;;;;144.40;46.93;;;16.40;93.50;;;;;;5453960;26;20599;-51
2024/05/06 05:49:09;;;;;;;145.43;47.37;;;16.40;92.40;;;;;;5454082;26;20917;-51
2024/05/06 05:51:39;;;;;;;144.97;47.13;;;16.40;93.80;;;;;;5454694;26;21028;-50
2024/05/06 05:54:09;;;;;;;145.73;47.40;;;16.50;93.30;;;;;;5463747;26;20598;-51
2024/05/06 05:56:42;;;;;;;145.20;47.27;;;16.40;92.70;;;;;;5490236;26;20672;-50
2024/05/06 05:59:13;;;;;;;144.73;47.07;;;16.70;93.70;;;;;;5490097;26;20538;-51
2024/05/06 06:01:45;;;;;;;145.83;47.47;;;16.60;93.90;;;;;;5490167;26;20598;-50
2024/05/06 06:04:18;;;;;;;145.23;47.17;;;16.40;93.30;;;;;;5489912;26;20566;-51
2024/05/06 06:06:49;;;;;;;145.30;47.07;;;16.20;94.70;;;;;;5490186;26;20593;-53
2024/05/06 06:09:19;;;;;;;145.20;47.10;;;16.10;95.20;;;;;;5490186;26;20554;-53
2024/05/06 06:11:51;;;;;;;145.10;47.00;;;16.10;97.10;;;;;;5490134;26;20640;-53
2024/05/06 06:14:21;;;;;;;145.33;47.00;;;16.00;96.50;;;;;;5489715;26;20951;-52
2024/05/06 06:16:51;;;;;;;144.93;46.80;;;15.90;97.00;;;;;;5490040;26;20797;-53
2024/05/06 06:19:22;;;;;;;144.87;46.80;;;15.90;98.40;;;;;;5490007;26;20546;-53
2024/05/06 06:21:52;;;;;;;145.07;46.87;;;15.90;99.10;;;;;;5489919;26;20630;-53
2024/05/06 06:24:22;;;;;;;145.27;47.00;;;15.90;98.50;;;;;;5490138;26;20594;-54
2024/05/06 06:26:55;;;;;;;145.97;47.37;;;15.90;99.90;;;;;;5489928;26;20586;-51
2024/05/06 06:29:25;;;;;;;145.37;47.07;;;15.90;99.20;;;;;;5489677;26;20543;-53
2024/05/06 06:31:55;;;;;;;144.13;46.47;;;15.90;98.80;;;;;;5490028;26;20575;-50
2024/05/06 06:34:25;;;;;;;144.83;46.87;;;15.80;98.30;;;;;;5489763;26;20566;-52
2024/05/06 06:36:55;;;;;;;145.27;47.00;;;16.00;99.90;;;;;;5489720;26;20586;-51
2024/05/06 06:39:25;;;;;;;144.40;46.50;;;16.00;99.40;;;;;;5489448;26;20660;-51
2024/05/06 06:41:58;;;;;;;144.63;46.70;;;16.10;98.60;;;;;;5489440;26;20578;-52
2024/05/06 06:44:28;;;;;;;144.73;46.80;;;16.10;98.20;;;;;;5489430;26;20550;-51
2024/05/06 06:46:58;;;;;;;145.67;47.27;;;16.30;99.40;;;;;;5489374;26;20590;-51
2024/05/06 06:49:28;;;;;;;145.27;47.00;;;16.30;98.40;;;;;;5489720;26;20538;-52
2024/05/06 06:51:58;;;;;;;145.40;47.10;;;16.50;99.20;;;;;;5460853;26;20583;-51
2024/05/06 06:54:28;;;;;;;145.57;47.37;;;16.60;99.20;;;;;;5468234;26;20908;-51
2024/05/06 06:57:03;;;;;;;145.57;47.30;;;16.60;98.60;;;;;;5488898;26;20766;-52
2024/05/06 06:59:33;;;;;;;145.70;47.03;;;16.50;98.70;;;;;;5478731;26;20586;-51
2024/05/06 07:02:03;;;;;;;146.73;47.70;;;16.70;98.50;;;;;;5487394;26;20618;-52
2024/05/06 07:04:33;;;;;;;145.77;47.40;;;16.70;97.90;;;;;;5487101;26;20695;-51
2024/05/06 07:07:03;;;;;;;145.77;47.33;;;16.70;97.20;;;;;;5487678;26;20606;-51
2024/05/06 07:09:38;;;;;;;146.60;47.63;;;16.60;97.30;;;;;;5486918;26;20585;-52
2024/05/06 07:12:13;;;;;;;145.63;47.20;;;16.70;98.30;;;;;;5486730;26;20661;-52
2024/05/06 07:14:43;;;;;;;145.90;47.47;;;16.80;97.40;;;;;;5481307;26;20637;-51
2024/05/06 07:17:13;;;;;;;146.23;47.40;;;16.80;97.50;;;;;;5487342;26;20672;-51
2024/05/06 07:19:43;;;;;;;146.87;47.83;;;16.80;97.20;;;;;;5485880;26;20574;-51
2024/05/06 07:22:13;;;;;;;146.40;47.50;;;16.90;97.80;;;;;;5487764;26;20602;-52
2024/05/06 07:24:44;;;;;;;146.20;47.43;;;16.90;98.00;;;;;;5487134;26;20626;-51
2024/05/06 07:27:17;;;;;;;146.80;47.83;;;17.00;97.70;;;;;;5486576;26;20614;-52
2024/05/06 07:29:47;;;;;;;146.23;47.50;;;17.00;96.90;;;;;;5486315;26;20979;-51
2024/05/06 07:32:17;;;;;;;146.17;47.53;;;17.00;96.90;;;;;;5486789;26;20719;-51
2024/05/06 07:34:47;;;;;;;146.57;47.70;;;17.00;96.20;;;;;;5486671;26;20649;-53
2024/05/06 07:37:17;;;;;;;146.10;47.47;;;17.20;97.10;;;;;;5486811;26;20602;-51
2024/05/06 07:39:47;;;;;;;146.53;47.73;;;17.10;97.40;;;;;;5473629;26;21226;-51
2024/05/06 07:42:21;;;;;;;146.87;47.87;;;17.10;96.40;;;;;;5482709;26;20602;-52
2024/05/06 07:44:51;;;;;;;146.67;47.77;;;17.10;95.60;;;;;;5484961;26;20672;-51
2024/05/06 07:47:24;;;;;;;145.70;47.13;;;17.20;97.30;;;;;;5486701;26;21203;-52
2024/05/06 07:49:55;;;;;;;146.40;47.73;;;17.30;94.80;;;;;;5485181;26;20629;-52
2024/05/06 07:52:25;;;;;;;146.93;47.90;;;17.70;94.10;;;;;;5477996;26;20689;-53
2024/05/06 07:54:55;;;;;;;146.80;47.83;;;17.60;94.70;;;;;;5485500;26;21025;-52
2024/05/06 07:57:27;;;;;;;147.17;48.07;;;17.60;94.30;;;;;;5485512;26;20707;-52
2024/05/06 07:59:57;;;;;;;147.47;48.10;;;17.60;94.70;;;;;;5481591;26;20667;-52
2024/05/06 08:02:27;;;;;;;147.50;47.93;;;17.60;94.70;;;;;;5485008;26;20670;-51
2024/05/06 08:04:58;;;;;;;147.67;48.13;;;17.70;94.10;;;;;;5485949;26;20252;-51
2024/05/06 08:07:32;;;;;;;148.27;48.57;;;17.70;94.00;;;;;;5486801;26;20658;-52
2024/05/06 08:10:02;;;;;;;147.50;48.27;;;17.80;93.40;;;;;;5485315;26;22070;-52
2024/05/06 08:12:35;;;;;;;148.27;48.40;;;17.90;93.50;;;;;;5476231;26;21244;-52
2024/05/06 08:15:06;;;;;;;148.23;48.43;;;18.00;92.50;;;;;;5483455;26;20582;-52
2024/05/06 08:17:36;;;;;;;147.67;48.20;;;18.00;93.80;;;;;;5485395;26;20257;-51
2024/05/06 08:20:06;;;;;;;147.43;48.20;;;18.20;92.20;;;;;;5485751;26;20839;-51
2024/05/06 08:22:36;;;;;;;148.03;48.33;;;18.30;92.40;;;;;;5484961;26;21181;-52
2024/05/06 08:25:23;;;;;;;148.90;48.97;;;18.50;91.90;;;;;;5484811;26;20287;-52
2024/05/06 08:27:56;;;;;;;149.27;48.97;;;18.60;92.00;;;;;;5485769;26;20302;-52
2024/05/06 08:30:27;;;;;;;149.17;48.93;;;18.80;90.80;;;;;;5484593;26;20593;-52
2024/05/06 08:32:57;;;;;;;149.20;48.90;;;18.90;90.40;;;;;;5478636;26;20291;-52
2024/05/06 08:35:27;;;;;;;149.63;49.47;;;19.60;87.90;;;;;;5480680;26;20242;-52
2024/05/06 08:37:57;;;;;;;150.57;49.90;;;19.80;86.60;;;;;;5485623;26;20637;-52
2024/05/06 08:40:27;;;;;;;150.87;50.03;;;20.70;83.10;;;;;;5477863;26;20783;-54
2024/05/06 08:43:10;;;;;;;151.07;50.27;;;21.00;78.10;;;;;;5485068;26;20261;-52
2024/05/06 08:45:41;;;;;;;151.23;50.30;;;20.60;77.00;;;;;;5477484;26;20253;-52
2024/05/06 08:48:14;;;;;;;151.73;50.93;;;21.10;75.20;;;;;;5440131;26;20723;-52
2024/05/06 08:50:46;;;;;;;152.40;51.00;;;21.60;76.20;;;;;;5480373;26;20277;-51
2024/05/06 08:53:16;;;;;;;152.33;51.50;;;22.10;70.00;;;;;;5482047;26;20753;-51
2024/05/06 08:55:50;;;;;;;150.93;50.73;;;22.20;69.00;;;;;;5484407;26;20275;-51
2024/05/06 08:58:28;;;;;;;152.60;51.20;;;21.70;68.70;;;;;;5483473;26;20816;-51
2024/05/06 09:00:59;;;;;;;151.83;51.23;;;21.50;68.90;;;;;;5480730;26;20252;-52
2024/05/06 09:03:29;;;;;;;153.17;52.07;;;21.30;69.40;;;;;;5483159;26;20770;-54
2024/05/06 09:05:59;;;;;;;152.00;51.37;;;21.90;69.20;;;;;;5484863;26;20249;-52
2024/05/06 09:08:29;;;;;;;153.20;51.97;;;22.30;66.30;;;;;;5484442;26;20286;-52
2024/05/06 09:11:01;;;;;;;152.47;51.93;;;22.30;64.20;;;;;;5483503;26;20257;-53
2024/05/06 09:13:34;;;;;;;152.30;51.47;;;22.20;65.30;;;;;;5484293;26;20249;-52
2024/05/06 09:16:04;;;;;;;152.77;51.60;;;22.60;65.80;;;;;;5487383;26;20363;-53
2024/05/06 09:18:34;;;;;;;153.53;52.23;;;22.40;61.60;;;;;;5487267;26;20249;-52
2024/05/06 09:21:08;;;;;;;153.33;52.20;;;22.80;65.50;;;;;;5488172;26;20265;-52
2024/05/06 09:23:42;;;;;;;153.10;52.10;;;23.00;64.30;;;;;;5486849;26;20252;-52
2024/05/06 09:26:15;;;;;;;154.13;52.90;;;22.70;62.30;;;;;;5487718;26;20279;-52
2024/05/06 09:28:47;;;;;;;152.97;52.17;;;22.20;61.70;;;;;;5487413;26;20249;-52
2024/05/06 09:31:23;;;;;;;153.07;52.00;;;22.10;61.20;;;;;;5487746;26;20283;-53
2024/05/06 09:33:57;;;;;;;153.30;52.27;;;21.80;61.40;;;;;;5486908;26;20253;-52
2024/05/06 09:36:29;;;;;;;152.20;51.40;;;21.60;62.80;;;;;;5488709;26;20338;-52
2024/05/06 09:39:05;;;;;;;152.70;51.77;;;21.80;64.00;;;;;;5487429;26;20257;-50
2024/05/06 09:41:48;;;;;;;152.50;51.67;;;21.50;63.40;;;;;;5487804;26;20342;-52
2024/05/06 09:44:22;;;;;;;152.57;51.93;;;21.70;66.20;;;;;;5477434;26;20244;-51
2024/05/06 09:46:53;;;;;;;152.60;51.87;;;22.20;64.70;;;;;;5487040;26;20289;-51
2024/05/06 09:49:26;;;;;;;152.77;51.70;;;22.30;60.40;;;;;;5486775;26;20257;-52
2024/05/06 09:52:00;;;;;;;152.60;51.87;;;22.50;61.00;;;;;;5484570;26;20260;-52
2024/05/06 09:54:31;;;;;;;152.93;51.97;;;22.60;59.50;;;;;;5479053;26;20345;-52
2024/05/06 09:57:03;;;;;;;152.37;51.73;;;22.30;59.50;;;;;;5485095;26;20249;-52
2024/05/06 09:59:36;;;;;;;152.97;51.87;;;21.70;61.20;;;;;;5485986;26;20241;-52
2024/05/06 10:02:11;;;;;;;152.23;51.47;;;21.40;62.20;;;;;;5487317;26;20261;-52
2024/05/06 10:04:42;;;;;;;152.57;51.83;;;21.80;62.90;;;;;;5483128;26;20252;-53
2024/05/06 10:07:14;;;;;;;153.00;51.80;;;22.10;62.00;;;;;;5487195;26;20260;-52
2024/05/06 10:09:47;;;;;;;152.77;52.10;;;21.90;59.80;;;;;;5486391;26;20257;-52
2024/05/06 10:12:17;;;;;;;151.73;51.23;;;22.00;60.30;;;;;;5487365;26;20774;-52
2024/05/06 10:15:00;;;;;;;152.57;51.67;;;22.10;60.80;;;;;;5487182;26;20256;-51
2024/05/06 10:17:37;;;;;;;152.23;51.47;;;21.60;60.20;;;;;;5487156;26;20257;-52
2024/05/06 10:20:09;;;;;;;153.30;51.90;;;21.70;60.60;;;;;;5487156;26;20638;-52
2024/05/06 10:23:01;;;;;;;152.70;51.60;;;21.50;61.10;;;;;;5487175;26;20253;-52
2024/05/06 10:25:34;;;;;;;152.83;51.57;;;21.30;61.50;;;;;;5486345;26;20652;-52
2024/05/06 10:28:05;;;;;;;151.93;51.00;;;21.30;61.40;;;;;;5486682;26;20730;-52
2024/05/06 10:30:48;;;;;;;152.80;51.73;;;21.50;61.00;;;;;;5487604;26;20570;-54
2024/05/06 10:33:19;;;;;;;152.73;51.70;;;21.70;60.80;;;;;;5480243;26;20676;-53
2024/05/06 10:35:59;;;;;;;152.87;51.63;;;21.70;59.90;;;;;;5485815;26;20753;-52
2024/05/06 10:38:34;;;;;;;152.33;51.23;;;21.30;59.00;;;;;;5487660;26;20725;-53
2024/05/06 10:41:05;;;;;;;152.47;51.40;;;21.50;59.60;;;;;;5487536;26;20240;-52
2024/05/06 10:43:36;;;;;;;152.63;51.40;;;21.50;58.80;;;;;;5486586;26;20253;-52
2024/05/06 10:46:09;;;;;;;152.27;51.43;;;21.30;59.60;;;;;;5487733;26;20304;-52
2024/05/06 10:48:39;;;;;;;152.00;51.23;;;21.00;58.70;;;;;;5486402;26;20261;-52
2024/05/06 10:51:09;;;;;;;151.73;51.20;;;21.00;60.70;;;;;;5485686;26;20640;-52
2024/05/06 10:53:39;;;;;;;152.60;51.40;;;21.30;59.60;;;;;;5485935;26;20287;-52
2024/05/06 10:56:10;;;;;;;152.47;51.33;;;21.10;59.50;;;;;;5481392;26;20643;-52
2024/05/06 10:58:40;;;;;;;151.40;50.73;;;21.50;61.60;;;;;;5486936;26;20305;-52
2024/05/06 11:01:13;;;;;;;152.93;51.53;;;21.40;58.30;;;;;;5486816;26;20299;-52
2024/05/06 11:03:44;;;;;;;151.80;51.20;;;21.40;58.80;;;;;;5487005;26;20300;-52
2024/05/06 11:06:14;;;;;;;151.73;50.77;;;21.30;58.80;;;;;;5478919;26;20402;-52
2024/05/06 11:08:44;;;;;;;151.87;50.70;;;21.30;59.50;;;;;;5486752;26;20296;-52
2024/05/06 11:11:15;;;;;;;152.03;50.97;;;21.40;60.70;;;;;;5486020;26;20665;-52
2024/05/06 11:13:46;;;;;;;152.57;51.37;;;21.40;61.30;;;;;;5486115;26;20248;-51
2024/05/06 11:16:19;;;;;;;151.87;51.10;;;21.30;59.40;;;;;;5487060;26;20257;-52
2024/05/06 11:18:49;;;;;;;152.33;51.10;;;21.40;59.60;;;;;;5486931;26;20829;-51
2024/05/06 11:21:20;;;;;;;151.60;50.67;;;21.10;59.70;;;;;;5486821;26;20619;-52
2024/05/06 11:23:50;;;;;;;151.53;51.03;;;21.10;60.40;;;;;;5486167;26;20336;-52
2024/05/06 11:26:21;;;;;;;152.50;51.30;;;21.10;60.30;;;;;;5486313;26;20257;-52
2024/05/06 11:28:51;;;;;;;152.30;51.23;;;21.00;59.80;;;;;;5486442;26;20253;-52
2024/05/06 11:31:25;;;;;;;151.63;50.90;;;21.10;59.60;;;;;;5486792;26;20245;-52
2024/05/06 11:33:56;;;;;;;152.03;51.03;;;21.00;58.40;;;;;;5485472;26;20784;-52
2024/05/06 11:36:26;;;;;;;151.17;50.57;;;21.00;58.70;;;;;;5485540;26;20326;-52
2024/05/06 11:39:11;;;;;;;151.53;50.53;;;21.10;58.90;;;;;;5484791;26;20290;-52
2024/05/06 11:41:42;;;;;;;151.40;50.77;;;21.30;59.00;;;;;;5485974;26;20722;-52
2024/05/06 11:44:12;;;;;;;152.03;50.73;;;21.50;58.40;;;;;;5476746;26;20260;-51
2024/05/06 11:46:44;;;;;;;151.10;50.67;;;21.40;56.80;;;;;;5483485;26;20325;-51
2024/05/06 11:49:14;;;;;;;151.63;50.83;;;21.50;59.20;;;;;;5485702;26;20287;-57
2024/05/06 11:51:45;;;;;;;152.07;51.40;;;21.50;56.80;;;;;;5482574;26;20596;-52
2024/05/06 11:54:15;;;;;;;152.50;51.60;;;21.40;57.00;;;;;;5481432;26;20300;-52
2024/05/06 11:56:45;;;;;;;151.57;50.77;;;21.40;58.50;;;;;;5486407;26;20245;-52
2024/05/06 11:59:16;;;;;;;151.93;50.93;;;21.20;56.80;;;;;;5484623;26;20281;-52
2024/05/06 12:01:49;;;;;;;151.60;50.47;;;20.70;56.10;;;;;;5486441;26;20256;-52
2024/05/06 12:04:19;;;;;;;151.13;50.37;;;20.80;57.90;;;;;;5480230;26;20253;-52
2024/05/06 12:06:50;;;;;;;151.10;50.43;;;20.80;58.30;;;;;;5485603;26;20668;-52
2024/05/06 12:09:21;;;;;;;152.47;51.70;;;20.90;58.60;;;;;;5485816;26;20260;-52
2024/05/06 12:11:51;;;;;;;151.80;50.77;;;20.90;57.80;;;;;;5484898;26;20630;-51
2024/05/06 12:14:21;;;;;;;152.37;51.10;;;21.10;58.80;;;;;;5484622;26;20296;-51
2024/05/06 12:16:54;;;;;;;151.00;50.20;;;20.80;57.80;;;;;;5485895;26;20298;-51
2024/05/06 12:19:24;;;;;;;151.93;50.97;;;20.70;57.60;;;;;;5484685;26;20308;-52
2024/05/06 12:21:55;;;;;;;151.27;50.17;;;20.70;58.60;;;;;;5485733;26;20260;-53
2024/05/06 12:24:25;;;;;;;151.67;50.97;;;20.80;58.30;;;;;;5484438;26;20588;-53
2024/05/06 12:27:01;;;;;;;151.80;50.63;;;20.70;57.10;;;;;;5485609;26;20635;-52
2024/05/06 12:29:31;;;;;;;151.83;51.07;;;20.50;57.50;;;;;;5481025;26;20317;-52
2024/05/06 12:32:04;;;;;;;151.40;50.67;;;20.60;58.10;;;;;;5485760;26;20345;-52
2024/05/06 12:34:34;;;;;;;151.37;50.57;;;20.80;57.80;;;;;;5484720;26;20360;-52
2024/05/06 12:37:05;;;;;;;151.43;50.70;;;20.90;56.60;;;;;;5482525;26;20249;-54
2024/05/06 12:39:35;;;;;;;151.50;50.70;;;20.80;56.60;;;;;;5484567;26;20249;-52
2024/05/06 12:42:05;;;;;;;151.63;50.67;;;20.60;57.20;;;;;;5485466;26;20353;-53
2024/05/06 12:44:35;;;;;;;151.03;50.50;;;20.70;59.00;;;;;;5480185;26;20350;-57